Terminal Aerodrome Forecast
Issued by NWS

Home | Current Version | Previous Version | Graphics & Text | Print | Product List | Glossary On
Versions: 1 2 3 4 5 6 7 8 9 10 11 12 13 14 15
000
FTUS43 KABR 231503 AAA
TAFPIR
TAF AMD
KPIR 231503Z 2315/2412 21015G21KT P6SM SKC
     FM231600 26013G23KT P6SM FEW250
     FM231800 32018G25KT P6SM FEW250
     FM240300 33010KT P6SM FEW250=

USA.gov is the U.S. government's official web portal to all federal, state and local government web resources and services.